Time;durP1;ratioP1;P1;durP2;ratioP2;P2;SDS_P1;SDS_P2;PMS_P1;PMS_P2;Temp;Humidity;BMP_temperature;BMP_pressure;BME280_temperature;BME280_humidity;BME280_pressure;Samples;Min_cycle;Max_cycle;Signal;HPM_P1;HPM_P2
2022/07/25 00:00:38;;;;;;;2.50;2.30;;;19.90;99.90;;;;;;5050556;28;20451;-88
2022/07/25 00:03:05;;;;;;;5.03;2.80;;;19.90;99.90;;;;;;5061032;28;20449;-89
2022/07/25 00:05:32;;;;;;;4.03;3.43;;;19.80;99.90;;;;;;5057068;28;21183;-88
2022/07/25 00:07:59;;;;;;;4.23;1.90;;;19.90;99.90;;;;;;5066313;28;20444;-87
2022/07/25 00:10:26;;;;;;;2.50;2.33;;;19.90;99.90;;;;;;5061045;28;20969;-87
2022/07/25 00:12:55;;;;;;;3.00;2.70;;;19.80;99.90;;;;;;5063078;28;20448;-87
2022/07/25 00:15:22;;;;;;;2.93;2.60;;;19.80;99.90;;;;;;5056480;28;20476;-87
2022/07/25 00:17:49;;;;;;;2.67;2.43;;;19.80;99.90;;;;;;5018639;28;1155849;-89
2022/07/25 00:20:16;;;;;;;3.33;2.10;;;19.70;99.90;;;;;;5059544;28;20213;-88
2022/07/25 00:22:43;;;;;;;2.83;2.57;;;19.70;99.90;;;;;;5064167;28;20512;-86
2022/07/25 00:25:10;;;;;;;2.23;2.10;;;19.60;99.90;;;;;;5057035;28;20997;-88
2022/07/25 00:27:37;;;;;;;3.60;1.93;;;19.60;99.90;;;;;;5057926;28;20436;-89
2022/07/25 00:30:13;;;;;;;3.67;2.40;;;19.60;99.90;;;;;;5056753;28;20826;-92
2022/07/25 00:32:40;;;;;;;3.80;3.50;;;19.60;99.90;;;;;;5056881;28;20457;-87
2022/07/25 00:35:08;;;;;;;2.47;2.27;;;19.60;99.90;;;;;;5064039;28;20492;-87
2022/07/25 00:37:35;;;;;;;3.13;2.90;;;19.60;99.90;;;;;;5062812;28;20460;-88
2022/07/25 00:40:02;;;;;;;2.90;2.70;;;19.60;99.90;;;;;;5059251;28;20487;-89
2022/07/25 00:42:29;;;;;;;2.40;2.20;;;19.50;99.90;;;;;;5056641;28;20490;-91
2022/07/25 00:44:58;;;;;;;3.23;2.93;;;19.60;99.90;;;;;;5060664;28;20512;-89
2022/07/25 00:47:27;;;;;;;1.97;1.53;;;19.60;99.90;;;;;;5056973;28;20442;-87
2022/07/25 00:49:54;;;;;;;2.20;2.00;;;19.60;99.90;;;;;;5063253;28;20483;-90
2022/07/25 00:52:22;;;;;;;2.77;2.57;;;19.60;99.90;;;;;;5082721;28;20434;-89
2022/07/25 00:54:49;;;;;;;1.47;1.37;;;19.70;99.90;;;;;;5081058;28;20535;-87
2022/07/25 00:57:16;;;;;;;3.87;3.10;;;19.70;99.90;;;;;;5077570;28;20492;-88
2022/07/25 00:59:43;;;;;;;3.43;2.37;;;19.80;99.90;;;;;;5064745;28;20458;-89
2022/07/25 01:02:10;;;;;;;2.23;1.70;;;19.80;99.90;;;;;;5063498;28;20516;-90
2022/07/25 01:04:39;;;;;;;2.23;2.13;;;19.80;99.90;;;;;;5061268;28;20451;-88
2022/07/25 01:07:07;;;;;;;3.30;3.00;;;19.80;99.90;;;;;;5063439;28;20459;-88
2022/07/25 01:09:34;;;;;;;2.53;2.10;;;19.70;99.90;;;;;;5063074;28;20467;-88
2022/07/25 01:12:01;;;;;;;2.73;2.53;;;19.70;99.90;;;;;;5060831;28;20463;-89
2022/07/25 01:14:28;;;;;;;2.60;2.40;;;19.70;99.90;;;;;;5059254;28;20529;-90
2022/07/25 01:16:55;;;;;;;2.53;2.33;;;19.70;99.90;;;;;;5055057;28;20882;-89
2022/07/25 01:19:22;;;;;;;2.33;2.13;;;19.60;99.90;;;;;;5055241;28;20502;-89
2022/07/25 01:21:50;;;;;;;1.80;1.67;;;19.50;99.90;;;;;;5061009;28;20463;-89
2022/07/25 01:24:18;;;;;;;2.73;2.53;;;19.50;99.90;;;;;;5064963;28;20551;-88
2022/07/25 01:26:45;;;;;;;3.60;3.30;;;19.50;99.90;;;;;;5069518;28;20477;-87
2022/07/25 01:29:12;;;;;;;3.77;3.10;;;19.60;99.80;;;;;;5068628;28;20528;-87
2022/07/25 01:31:39;;;;;;;2.00;1.67;;;19.60;99.60;;;;;;5068444;28;20464;-86
2022/07/25 01:34:05;;;;;;;1.63;1.53;;;19.60;99.40;;;;;;5065037;28;20460;-88
2022/07/25 01:36:33;;;;;;;2.60;2.40;;;19.50;99.20;;;;;;5058801;28;20476;-87
2022/07/25 01:39:01;;;;;;;3.30;3.10;;;19.60;99.10;;;;;;5058346;28;20466;-88
2022/07/25 01:41:28;;;;;;;2.60;1.77;;;19.50;99.10;;;;;;5061010;28;20462;-88
2022/07/25 01:43:55;;;;;;;3.43;2.50;;;19.50;99.30;;;;;;5055550;28;20530;-89
2022/07/25 01:46:22;;;;;;;3.33;2.50;;;19.50;99.30;;;;;;5055158;28;20846;-87
2022/07/25 01:48:49;;;;;;;2.80;2.60;;;19.50;99.30;;;;;;5051783;28;20556;-88
2022/07/25 01:51:16;;;;;;;2.13;2.03;;;19.50;99.60;;;;;;5061203;28;20463;-89
2022/07/25 01:53:43;;;;;;;1.93;1.70;;;19.50;99.40;;;;;;5060759;28;20500;-89
2022/07/25 01:56:12;;;;;;;2.93;2.37;;;19.40;99.60;;;;;;5055449;28;20486;-89
2022/07/25 01:58:39;;;;;;;2.53;1.97;;;19.40;99.70;;;;;;5051704;28;20464;-87
2022/07/25 02:01:06;;;;;;;2.90;2.47;;;19.30;99.80;;;;;;5056708;28;20467;-89
2022/07/25 02:03:33;;;;;;;3.50;3.20;;;19.30;99.90;;;;;;5049864;28;21051;-89
2022/07/25 02:06:02;;;;;;;2.70;2.50;;;19.20;99.90;;;;;;5052035;28;20471;-88
2022/07/25 02:08:29;;;;;;;2.70;2.20;;;19.20;99.90;;;;;;5059435;28;20855;-87
2022/07/25 02:10:57;;;;;;;2.80;2.47;;;19.20;99.90;;;;;;5059957;28;20448;-88
2022/07/25 02:13:25;;;;;;;2.70;2.47;;;19.10;99.90;;;;;;5053039;28;20467;-87
2022/07/25 02:15:52;;;;;;;4.00;2.67;;;19.10;99.90;;;;;;5053448;28;21816;-88
2022/07/25 02:18:20;;;;;;;2.40;2.20;;;19.10;99.90;;;;;;5057890;28;20452;-88
2022/07/25 02:20:47;;;;;;;3.23;2.87;;;19.00;99.90;;;;;;5054375;28;20540;-87
2022/07/25 02:23:14;;;;;;;3.50;1.97;;;18.90;99.90;;;;;;5048905;28;20450;-87
2022/07/25 02:25:41;;;;;;;3.47;3.17;;;18.90;99.90;;;;;;5056876;28;20524;-90
2022/07/25 02:28:08;;;;;;;3.30;3.10;;;18.90;99.90;;;;;;5061302;28;20548;-88
2022/07/25 02:30:36;;;;;;;4.13;3.30;;;18.90;99.90;;;;;;5054182;28;21219;-87
2022/07/25 02:33:03;;;;;;;3.87;2.20;;;18.90;99.90;;;;;;5054547;28;20465;-88
2022/07/25 02:35:30;;;;;;;2.67;2.43;;;18.80;99.90;;;;;;5051486;28;20568;-88
2022/07/25 02:37:58;;;;;;;2.67;2.47;;;18.80;99.90;;;;;;5053099;28;21144;-88
2022/07/25 02:40:25;;;;;;;2.70;2.50;;;18.80;99.90;;;;;;5058414;28;21020;-88
2022/07/25 02:42:52;;;;;;;3.13;2.33;;;18.80;99.90;;;;;;5059981;28;20464;-88
2022/07/25 02:45:19;;;;;;;2.90;2.60;;;18.70;99.90;;;;;;5053273;28;20450;-88
2022/07/25 02:47:48;;;;;;;4.17;3.33;;;18.60;99.90;;;;;;5051547;28;20464;-88
2022/07/25 02:50:15;;;;;;;3.80;3.50;;;18.50;99.90;;;;;;5060834;28;20465;-89
2022/07/25 02:52:42;;;;;;;2.90;2.60;;;18.50;99.90;;;;;;5060658;28;20461;-87
2022/07/25 02:55:10;;;;;;;3.53;2.90;;;18.50;99.90;;;;;;5055923;28;20492;-87
2022/07/25 02:57:37;;;;;;;3.00;2.70;;;18.40;99.90;;;;;;5060526;28;20574;-89
2022/07/25 03:00:05;;;;;;;3.20;2.93;;;18.30;99.90;;;;;;5052519;28;20469;-90
2022/07/25 03:02:32;;;;;;;3.27;3.00;;;18.30;99.90;;;;;;5053618;28;20989;-87
2022/07/25 03:05:01;;;;;;;2.97;2.77;;;18.30;99.90;;;;;;5062637;28;20536;-89
2022/07/25 03:07:28;;;;;;;4.03;3.70;;;18.30;99.90;;;;;;5059383;28;20566;-88
2022/07/25 03:09:55;;;;;;;4.30;3.30;;;18.30;99.90;;;;;;5057011;28;20537;-88
2022/07/25 03:12:22;;;;;;;3.93;3.20;;;18.20;99.90;;;;;;5056379;28;20476;-90
2022/07/25 03:14:49;;;;;;;4.53;3.10;;;18.20;99.90;;;;;;5055855;28;21517;-89
2022/07/25 03:17:17;;;;;;;3.53;3.03;;;18.00;99.90;;;;;;5054018;28;20488;-90
2022/07/25 03:19:44;;;;;;;3.33;2.77;;;17.80;99.90;;;;;;5059409;28;20458;-88
2022/07/25 03:22:12;;;;;;;3.97;3.67;;;17.70;99.90;;;;;;5053954;28;20517;-90
2022/07/25 03:24:39;;;;;;;4.70;4.10;;;17.60;99.90;;;;;;5067486;28;20459;-90
2022/07/25 03:27:06;;;;;;;4.40;4.00;;;17.60;99.90;;;;;;5061401;28;20459;-89
2022/07/25 03:29:33;;;;;;;4.20;3.30;;;17.50;99.90;;;;;;5054463;28;20475;-88
2022/07/25 03:32:00;;;;;;;4.27;3.70;;;17.50;99.90;;;;;;5054224;28;20467;-90
2022/07/25 03:34:27;;;;;;;5.83;3.50;;;17.40;99.90;;;;;;5055789;28;20519;-88
2022/07/25 03:36:54;;;;;;;3.50;3.20;;;17.40;99.90;;;;;;5064049;28;21078;-88
2022/07/25 03:39:23;;;;;;;3.63;3.30;;;17.30;99.90;;;;;;5059783;28;20997;-88
2022/07/25 03:41:51;;;;;;;4.10;3.70;;;17.40;99.90;;;;;;5057077;28;20484;-88
2022/07/25 03:44:18;;;;;;;2.97;2.77;;;17.30;99.90;;;;;;5059800;28;20501;-88
2022/07/25 03:46:46;;;;;;;2.80;2.57;;;17.50;99.90;;;;;;5053165;28;20503;-90
2022/07/25 03:49:13;;;;;;;3.07;2.83;;;17.50;99.90;;;;;;5077860;28;20460;-89
2022/07/25 03:51:40;;;;;;;6.30;2.90;;;17.50;99.90;;;;;;5080993;28;20454;-89
2022/07/25 03:54:07;;;;;;;4.10;3.70;;;17.60;99.90;;;;;;5084547;28;20550;-89
2022/07/25 03:56:39;;;;;;;4.73;3.27;;;17.60;99.90;;;;;;5086005;28;20566;-89
2022/07/25 03:59:06;;;;;;;5.23;4.67;;;17.50;99.90;;;;;;5067814;28;20467;-89
2022/07/25 04:01:34;;;;;;;4.00;3.60;;;17.50;99.90;;;;;;5064850;28;20459;-89
2022/07/25 04:04:02;;;;;;;6.10;3.80;;;17.50;99.90;;;;;;5060634;28;20521;-92
2022/07/25 04:06:29;;;;;;;3.77;3.40;;;17.50;99.90;;;;;;5065449;28;20471;-88
2022/07/25 04:08:57;;;;;;;4.30;3.90;;;17.60;99.90;;;;;;5055957;28;21000;-91
2022/07/25 04:11:24;;;;;;;4.23;3.57;;;17.70;99.90;;;;;;5065661;28;21248;-87
2022/07/25 04:13:52;;;;;;;6.60;4.07;;;17.70;99.90;;;;;;5066053;28;20992;-87
2022/07/25 04:16:19;;;;;;;6.37;4.23;;;17.80;99.90;;;;;;5052734;28;20498;-90
2022/07/25 04:18:47;;;;;;;4.53;4.13;;;17.90;99.90;;;;;;5063624;28;20467;-89
2022/07/25 04:21:14;;;;;;;5.00;3.53;;;17.90;99.90;;;;;;5062302;28;20461;-88
2022/07/25 04:23:41;;;;;;;4.57;4.27;;;18.00;99.90;;;;;;5063423;28;20455;-88
2022/07/25 04:26:08;;;;;;;4.73;4.33;;;18.10;99.90;;;;;;5057103;28;20517;-89
2022/07/25 04:28:35;;;;;;;4.60;3.77;;;18.20;99.90;;;;;;5058382;28;20457;-88
2022/07/25 04:31:03;;;;;;;4.50;4.10;;;18.30;99.90;;;;;;5059213;28;20962;-88
2022/07/25 04:33:30;;;;;;;4.80;4.40;;;18.30;99.90;;;;;;5059696;28;20844;-89
2022/07/25 04:35:57;;;;;;;3.10;2.47;;;18.30;99.90;;;;;;5051643;28;21195;-88
2022/07/25 04:38:24;;;;;;;4.23;3.20;;;18.40;99.90;;;;;;5050161;28;20461;-88
2022/07/25 04:40:51;;;;;;;3.63;3.33;;;18.40;99.90;;;;;;5060501;28;20459;-88
2022/07/25 04:43:20;;;;;;;4.63;4.20;;;18.50;99.90;;;;;;5055110;28;21125;-88
2022/07/25 04:45:47;;;;;;;4.10;3.70;;;18.60;99.90;;;;;;5059163;28;20455;-88
2022/07/25 04:48:15;;;;;;;3.13;2.83;;;18.70;99.90;;;;;;5057524;28;20516;-88
2022/07/25 04:50:42;;;;;;;3.80;3.20;;;18.80;99.90;;;;;;5064565;28;20531;-87
2022/07/25 04:53:09;;;;;;;3.47;2.97;;;19.00;99.90;;;;;;5052783;28;20457;-91
2022/07/25 04:55:37;;;;;;;5.20;4.10;;;19.00;99.90;;;;;;5064073;28;20963;-90
2022/07/25 04:58:04;;;;;;;3.07;2.80;;;19.10;99.90;;;;;;5077634;28;20584;-86
2022/07/25 05:00:32;;;;;;;5.83;2.87;;;19.20;99.90;;;;;;5072713;28;20457;-88
2022/07/25 05:02:59;;;;;;;2.70;2.50;;;19.30;99.90;;;;;;5074544;28;20556;-88
2022/07/25 05:05:27;;;;;;;4.10;3.03;;;19.40;99.90;;;;;;5065028;28;20672;-88
2022/07/25 05:07:57;;;;;;;3.47;3.17;;;19.60;99.90;;;;;;5055880;28;20512;-87
2022/07/25 05:10:24;;;;;;;3.03;2.77;;;19.80;99.90;;;;;;5061496;28;20464;-87
2022/07/25 05:12:51;;;;;;;2.90;2.67;;;19.90;99.90;;;;;;5060451;28;20522;-87
2022/07/25 05:15:18;;;;;;;3.17;2.73;;;19.80;99.90;;;;;;5063656;28;20456;-87
2022/07/25 05:17:45;;;;;;;3.97;3.60;;;19.90;99.90;;;;;;5059958;28;20493;-87
2022/07/25 05:20:13;;;;;;;4.30;3.43;;;20.00;99.90;;;;;;5066041;28;20453;-88
2022/07/25 05:22:42;;;;;;;3.20;2.90;;;20.10;99.90;;;;;;5062481;28;20468;-89
2022/07/25 05:25:11;;;;;;;5.90;3.17;;;20.20;99.90;;;;;;5065932;28;20466;-89
2022/07/25 05:27:39;;;;;;;2.77;2.57;;;20.20;99.90;;;;;;5064310;28;20466;-89
2022/07/25 05:30:08;;;;;;;2.67;2.47;;;20.40;99.90;;;;;;5055862;28;20457;-88
2022/07/25 05:32:35;;;;;;;9.70;2.57;;;20.40;99.50;;;;;;5058305;28;20470;-89
2022/07/25 05:35:02;;;;;;;3.20;2.70;;;20.50;99.00;;;;;;5062978;28;20520;-88
2022/07/25 05:37:30;;;;;;;2.77;2.57;;;20.50;98.40;;;;;;5065187;28;20479;-89
2022/07/25 05:39:58;;;;;;;3.67;3.37;;;20.60;98.10;;;;;;5061988;28;20526;-89
2022/07/25 05:42:25;;;;;;;4.03;2.77;;;20.70;97.80;;;;;;5064519;28;20457;-89
2022/07/25 05:44:52;;;;;;;3.13;2.83;;;20.70;96.50;;;;;;5065748;28;20461;-89
2022/07/25 05:47:20;;;;;;;3.03;2.10;;;20.90;96.80;;;;;;5066821;28;20524;-88
2022/07/25 05:49:47;;;;;;;5.20;1.97;;;20.90;96.50;;;;;;5061077;28;20465;-86
2022/07/25 05:52:14;;;;;;;3.20;2.70;;;21.00;96.20;;;;;;5059957;28;20475;-85
2022/07/25 05:54:42;;;;;;;1.87;1.77;;;21.10;95.80;;;;;;5062133;28;20471;-87
2022/07/25 05:57:10;;;;;;;3.03;2.83;;;21.40;95.90;;;;;;5051589;28;20491;-87
2022/07/25 05:59:37;;;;;;;2.87;2.40;;;21.60;95.40;;;;;;5049594;28;20460;-86
2022/07/25 06:02:04;;;;;;;2.20;2.00;;;21.70;94.30;;;;;;5048895;28;20494;-86
2022/07/25 06:04:31;;;;;;;2.57;1.83;;;21.80;92.70;;;;;;5054971;28;20459;-87
2022/07/25 06:06:58;;;;;;;2.70;2.20;;;21.90;92.80;;;;;;5054105;28;21233;-86
2022/07/25 06:09:25;;;;;;;3.87;2.23;;;22.10;92.90;;;;;;5052676;28;20496;-87
2022/07/25 06:11:52;;;;;;;2.83;1.80;;;22.20;92.90;;;;;;5052967;28;20845;-87
2022/07/25 06:14:21;;;;;;;2.60;2.17;;;22.30;92.00;;;;;;5052486;28;20460;-86
2022/07/25 06:16:48;;;;;;;2.80;2.20;;;22.40;92.50;;;;;;5059300;28;20950;-87
2022/07/25 06:19:15;;;;;;;2.23;2.10;;;22.50;91.60;;;;;;5059712;28;20447;-86
2022/07/25 06:21:42;;;;;;;2.50;2.03;;;22.70;91.20;;;;;;5058091;28;20464;-87
2022/07/25 06:24:09;;;;;;;1.90;1.80;;;22.80;90.70;;;;;;5058471;28;20444;-85
2022/07/25 06:26:37;;;;;;;2.77;2.17;;;23.10;89.70;;;;;;5059301;28;20460;-87
2022/07/25 06:29:04;;;;;;;2.13;1.73;;;23.00;90.00;;;;;;5059744;28;20540;-86
2022/07/25 06:31:33;;;;;;;2.97;2.70;;;23.10;88.60;;;;;;5060909;28;20517;-86
2022/07/25 06:34:00;;;;;;;1.93;1.47;;;23.10;90.00;;;;;;5059208;28;20483;-88
2022/07/25 06:36:27;;;;;;;4.27;3.07;;;23.20;87.90;;;;;;5063467;28;20479;-86
2022/07/25 06:38:54;;;;;;;1.77;1.67;;;23.30;88.80;;;;;;5063333;28;20517;-88
2022/07/25 06:41:21;;;;;;;4.60;2.43;;;23.40;86.90;;;;;;5065027;28;20551;-86
2022/07/25 06:43:48;;;;;;;1.90;1.77;;;23.50;86.30;;;;;;5060828;28;20467;-86
2022/07/25 06:46:15;;;;;;;2.67;2.47;;;23.60;86.60;;;;;;5077290;28;20480;-86
2022/07/25 06:48:43;;;;;;;1.73;1.27;;;23.80;87.70;;;;;;5074477;28;20584;-86
2022/07/25 06:51:10;;;;;;;2.33;1.90;;;23.80;83.60;;;;;;5064004;28;20988;-86
2022/07/25 06:53:37;;;;;;;2.60;2.40;;;23.70;83.20;;;;;;5066504;28;20467;-86
2022/07/25 06:56:05;;;;;;;1.67;1.57;;;23.70;83.80;;;;;;5067063;28;20517;-88
2022/07/25 06:58:32;;;;;;;12.10;3.00;;;23.90;83.80;;;;;;5064711;28;20597;-86
2022/07/25 07:00:59;;;;;;;2.43;2.30;;;24.00;84.10;;;;;;5070193;28;20443;-87
2022/07/25 07:03:26;;;;;;;3.53;2.00;;;24.10;82.80;;;;;;5070203;28;20455;-88
2022/07/25 07:05:55;;;;;;;1.63;1.53;;;24.30;84.10;;;;;;5062401;28;20520;-87
2022/07/25 07:08:22;;;;;;;2.00;1.90;;;24.50;85.20;;;;;;5059004;28;20542;-85
2022/07/25 07:10:49;;;;;;;2.13;1.93;;;24.60;84.50;;;;;;5067256;28;20471;-86
2022/07/25 07:13:17;;;;;;;2.33;1.70;;;24.90;81.60;;;;;;5071667;28;20443;-87
2022/07/25 07:15:48;;;;;;;2.30;2.00;;;25.00;81.00;;;;;;5068562;28;20448;-86
2022/07/25 07:18:16;;;;;;;3.00;2.03;;;24.90;81.70;;;;;;5062855;28;20609;-86
2022/07/25 07:20:43;;;;;;;1.43;1.33;;;24.90;82.00;;;;;;5059022;28;20456;-88
2022/07/25 07:23:12;;;;;;;1.80;1.70;;;25.30;81.00;;;;;;5056432;28;20466;-89
2022/07/25 07:25:39;;;;;;;2.23;2.13;;;25.40;83.30;;;;;;5056095;28;20463;-90
2022/07/25 07:28:07;;;;;;;1.70;1.60;;;25.50;82.50;;;;;;5059760;28;20525;-87
2022/07/25 07:30:34;;;;;;;3.37;3.10;;;25.30;79.50;;;;;;5058817;28;20495;-88
2022/07/25 07:33:01;;;;;;;4.10;1.50;;;25.30;79.30;;;;;;5059226;28;20467;-87
2022/07/25 07:35:28;;;;;;;2.20;2.00;;;25.50;84.40;;;;;;5055288;28;20453;-88
2022/07/25 07:37:55;;;;;;;2.40;2.30;;;25.60;81.10;;;;;;5060779;28;20479;-87
2022/07/25 07:40:25;;;;;;;3.23;1.93;;;25.80;81.20;;;;;;5056779;28;20532;-87
2022/07/25 07:42:53;;;;;;;2.37;2.07;;;25.60;76.60;;;;;;5056453;28;20478;-87
2022/07/25 07:45:22;;;;;;;2.70;2.47;;;25.70;79.00;;;;;;5057380;28;20509;-87
2022/07/25 07:47:50;;;;;;;2.73;2.13;;;26.00;83.10;;;;;;5053587;28;20507;-86
2022/07/25 07:50:21;;;;;;;3.40;1.90;;;26.10;77.60;;;;;;5060358;28;20456;-89
2022/07/25 07:52:49;;;;;;;3.53;3.23;;;25.90;75.80;;;;;;5058607;28;20559;-87
2022/07/25 07:58:02;;;;;;;2.67;2.47;;;26.00;79.60;;;;;;5056741;28;20498;-88
2022/07/25 08:00:30;;;;;;;4.53;2.50;;;26.10;77.00;;;;;;5060811;28;20460;-87
2022/07/25 08:02:58;;;;;;;2.90;2.27;;;26.20;80.10;;;;;;5059718;28;20959;-87
2022/07/25 08:05:29;;;;;;;1.70;1.60;;;26.40;78.40;;;;;;5060014;28;20508;-87
2022/07/25 08:07:58;;;;;;;2.87;2.67;;;26.50;77.30;;;;;;5056085;28;20517;-88
2022/07/25 08:10:26;;;;;;;2.70;2.20;;;26.60;76.40;;;;;;5057322;28;20494;-89
2022/07/25 08:12:54;;;;;;;2.50;2.40;;;26.80;73.30;;;;;;5063031;28;20459;-88
2022/07/25 08:15:23;;;;;;;3.20;2.50;;;27.00;75.00;;;;;;5068308;28;20509;-94
2022/07/25 08:17:51;;;;;;;3.17;2.97;;;27.10;75.80;;;;;;5065252;28;20575;-87
2022/07/25 08:20:19;;;;;;;3.10;2.80;;;27.20;80.10;;;;;;5065233;28;20460;-87
2022/07/25 08:22:47;;;;;;;2.43;2.23;;;27.20;75.40;;;;;;5079151;28;20452;-87
2022/07/25 08:25:16;;;;;;;2.40;2.20;;;27.30;72.50;;;;;;5083784;28;20443;-88
2022/07/25 08:27:43;;;;;;;2.43;2.23;;;27.30;72.20;;;;;;5074026;28;20460;-88
2022/07/25 08:30:14;;;;;;;3.90;3.60;;;27.40;75.70;;;;;;5078106;28;20505;-87
2022/07/25 08:32:50;;;;;;;2.60;2.40;;;27.70;74.00;;;;;;5058835;28;20935;-87
2022/07/25 08:35:18;;;;;;;3.23;2.63;;;27.60;76.70;;;;;;5058608;28;20525;-86
2022/07/25 08:37:46;;;;;;;4.50;3.10;;;27.40;75.60;;;;;;5056308;28;20563;-85
2022/07/25 08:40:14;;;;;;;3.27;2.90;;;27.60;75.30;;;;;;5058495;28;20524;-86
2022/07/25 08:42:42;;;;;;;2.93;2.73;;;27.80;75.80;;;;;;5054062;28;20948;-89
2022/07/25 08:45:12;;;;;;;3.37;3.10;;;28.10;75.90;;;;;;5059614;28;20550;-89
2022/07/25 08:47:40;;;;;;;2.30;2.20;;;27.70;73.70;;;;;;5060216;28;20857;-87
2022/07/25 08:50:11;;;;;;;2.83;2.60;;;27.90;76.90;;;;;;5065691;28;20815;-89
2022/07/25 08:52:39;;;;;;;3.63;2.50;;;27.90;74.90;;;;;;5060837;28;20468;-89
2022/07/25 08:55:08;;;;;;;2.13;2.03;;;28.10;73.30;;;;;;5065014;28;20521;-87
2022/07/25 08:57:36;;;;;;;2.77;2.57;;;28.60;74.60;;;;;;5058773;28;20488;-86
2022/07/25 09:00:06;;;;;;;2.90;2.70;;;28.80;73.50;;;;;;5053664;28;20457;-90
2022/07/25 09:02:33;;;;;;;4.30;3.23;;;28.70;74.10;;;;;;5056283;28;20469;-89
2022/07/25 09:05:00;;;;;;;5.00;3.33;;;29.00;71.50;;;;;;5056139;28;20490;-86
2022/07/25 09:07:33;;;;;;;4.20;3.23;;;29.00;69.40;;;;;;5057617;28;20533;-86
2022/07/25 09:10:12;;;;;;;3.40;3.20;;;29.10;69.30;;;;;;5053809;28;20855;-86
2022/07/25 09:12:39;;;;;;;3.50;3.20;;;29.30;73.30;;;;;;5061111;28;21122;-89
2022/07/25 09:15:08;;;;;;;2.93;2.73;;;29.00;70.50;;;;;;5062684;28;20443;-91
2022/07/25 09:17:36;;;;;;;2.83;2.63;;;28.60;73.80;;;;;;5059096;28;20492;-87
2022/07/25 09:20:05;;;;;;;3.37;3.10;;;28.50;72.40;;;;;;5054952;28;20860;-87
2022/07/25 09:22:44;;;;;;;3.27;3.07;;;28.80;71.80;;;;;;5052761;28;20492;-89
2022/07/25 09:25:24;;;;;;;3.93;3.13;;;29.10;71.00;;;;;;5053155;28;20547;-86
2022/07/25 09:27:51;;;;;;;3.27;3.03;;;29.40;70.80;;;;;;5051504;28;20462;-89
2022/07/25 09:30:18;;;;;;;3.47;3.17;;;29.60;71.10;;;;;;5060607;28;20455;-89
2022/07/25 09:32:45;;;;;;;3.13;2.90;;;29.90;73.30;;;;;;5073247;28;20460;-87
2022/07/25 09:35:12;;;;;;;3.03;2.83;;;29.40;69.60;;;;;;5079762;28;20521;-88
2022/07/25 09:37:41;;;;;;;8.83;3.43;;;29.50;70.60;;;;;;5075745;28;20477;-89
2022/07/25 09:40:15;;;;;;;2.40;2.20;;;30.00;71.80;;;;;;5068137;28;20448;-89
2022/07/25 09:42:45;;;;;;;3.13;2.93;;;30.10;73.80;;;;;;5065477;28;20435;-89
2022/07/25 09:45:14;;;;;;;4.23;3.83;;;29.90;72.00;;;;;;5059777;28;21000;-87
2022/07/25 09:47:52;;;;;;;5.77;5.37;;;30.00;69.20;;;;;;5053386;28;20468;-87
2022/07/25 09:50:19;;;;;;;4.37;4.03;;;29.70;69.60;;;;;;5057451;28;20463;-87
2022/07/25 09:52:48;;;;;;;3.73;3.43;;;29.70;70.40;;;;;;5051741;28;20479;-87
2022/07/25 09:55:15;;;;;;;4.47;4.17;;;29.50;69.00;;;;;;5059973;28;21065;-89
2022/07/25 09:57:45;;;;;;;4.50;3.80;;;29.60;69.50;;;;;;5056891;28;20571;-87
2022/07/25 10:00:15;;;;;;;4.03;3.73;;;29.90;70.30;;;;;;5059197;28;20861;-86
2022/07/25 10:02:49;;;;;;;3.10;2.90;;;29.80;71.30;;;;;;5053037;28;20866;-87
2022/07/25 10:05:22;;;;;;;4.93;4.13;;;29.90;70.50;;;;;;5061269;28;20962;-89
2022/07/25 10:07:53;;;;;;;4.30;3.37;;;29.90;69.40;;;;;;5062191;28;20468;-89
2022/07/25 10:10:27;;;;;;;4.20;3.87;;;30.20;72.10;;;;;;5056735;28;20452;-87
2022/07/25 10:13:02;;;;;;;4.30;4.00;;;30.10;69.20;;;;;;5055720;28;21081;-88
2022/07/25 10:15:44;;;;;;;3.10;2.90;;;30.20;72.20;;;;;;5055922;28;20522;-87
2022/07/25 10:18:11;;;;;;;3.00;2.80;;;30.20;71.70;;;;;;5054387;28;20537;-90
2022/07/25 10:20:38;;;;;;;3.63;3.40;;;30.50;72.10;;;;;;5062963;28;20506;-87
2022/07/25 10:23:20;;;;;;;4.10;3.57;;;30.50;69.00;;;;;;5054739;28;20459;-90
2022/07/25 10:25:47;;;;;;;4.47;3.70;;;30.80;68.10;;;;;;5049003;28;20942;-87
2022/07/25 10:28:18;;;;;;;3.47;3.20;;;30.50;67.50;;;;;;5056197;28;20455;-88
2022/07/25 10:30:45;;;;;;;3.60;3.30;;;30.40;68.70;;;;;;5051874;28;21242;-88
2022/07/25 10:33:14;;;;;;;3.40;3.10;;;30.70;67.80;;;;;;5049412;28;20460;-89
2022/07/25 10:35:42;;;;;;;4.10;3.60;;;30.80;66.80;;;;;;5062483;28;20560;-87
2022/07/25 10:38:11;;;;;;;3.57;3.37;;;30.80;68.90;;;;;;5061582;28;20475;-88
2022/07/25 10:40:39;;;;;;;3.50;3.20;;;31.10;68.10;;;;;;5060933;28;20550;-91
2022/07/25 10:43:12;;;;;;;3.83;3.53;;;31.00;65.60;;;;;;5054711;28;20475;-91
2022/07/25 10:45:41;;;;;;;3.70;3.40;;;30.80;64.60;;;;;;5061469;28;20509;-93
2022/07/25 10:48:20;;;;;;;3.57;3.20;;;30.60;66.90;;;;;;5058423;28;20460;-87
2022/07/25 10:50:49;;;;;;;4.40;4.10;;;30.80;66.00;;;;;;5056269;28;20897;-87
2022/07/25 10:53:28;;;;;;;5.33;4.93;;;31.10;67.50;;;;;;5061030;28;20807;-87
2022/07/25 10:56:02;;;;;;;3.57;3.37;;;31.80;67.80;;;;;;5060152;28;20471;-89
2022/07/25 10:58:45;;;;;;;4.20;4.00;;;31.80;64.70;;;;;;5058401;28;20537;-88
2022/07/25 11:01:14;;;;;;;5.00;3.63;;;32.00;65.10;;;;;;5061675;28;20546;-87
2022/07/25 11:03:43;;;;;;;4.43;4.13;;;32.00;64.80;;;;;;5062965;28;20479;-87
2022/07/25 11:06:12;;;;;;;4.60;3.73;;;32.10;64.70;;;;;;5061108;28;20718;-88
2022/07/25 11:08:41;;;;;;;3.17;2.87;;;31.70;63.80;;;;;;5059843;28;20542;-91
2022/07/25 11:11:09;;;;;;;3.90;3.60;;;31.90;68.00;;;;;;5063455;28;20467;-90
2022/07/25 11:13:40;;;;;;;3.77;3.47;;;31.90;61.50;;;;;;5065920;28;20455;-87
2022/07/25 11:16:09;;;;;;;4.43;4.13;;;32.20;64.10;;;;;;5062732;28;20844;-88
2022/07/25 11:18:37;;;;;;;4.40;4.13;;;32.60;66.70;;;;;;5060963;28;20566;-87
2022/07/25 11:21:06;;;;;;;4.20;3.90;;;32.60;62.90;;;;;;5056232;28;20467;-87
2022/07/25 11:23:33;;;;;;;4.83;4.43;;;32.70;64.10;;;;;;5054510;28;20459;-86
2022/07/25 11:26:12;;;;;;;5.43;5.03;;;33.00;61.80;;;;;;5058077;28;21007;-87
2022/07/25 11:28:41;;;;;;;3.33;3.13;;;33.10;62.60;;;;;;5064760;28;20467;-86
2022/07/25 11:31:09;;;;;;;3.57;3.33;;;33.40;59.30;;;;;;5057848;28;20545;-90
2022/07/25 11:33:37;;;;;;;4.83;4.43;;;33.40;59.90;;;;;;5058342;28;20535;-86
2022/07/25 11:36:05;;;;;;;4.60;4.20;;;33.30;57.50;;;;;;5064474;28;20902;-83
2022/07/25 11:38:33;;;;;;;4.67;4.27;;;33.10;56.50;;;;;;5061246;28;20479;-85
2022/07/25 11:41:00;;;;;;;4.33;4.03;;;32.80;59.00;;;;;;5055626;28;20544;-84
2022/07/25 11:43:28;;;;;;;4.97;4.60;;;32.50;58.00;;;;;;5058800;28;20474;-86
2022/07/25 11:46:00;;;;;;;4.03;3.77;;;32.50;57.50;;;;;;5062959;28;20530;-87
2022/07/25 11:48:33;;;;;;;4.60;4.20;;;33.00;56.90;;;;;;5068320;28;20493;-88
2022/07/25 11:51:13;;;;;;;4.40;4.10;;;32.80;57.80;;;;;;5077984;28;20529;-88
2022/07/25 11:53:42;;;;;;;4.27;3.87;;;32.90;56.00;;;;;;5061972;28;20893;-88
2022/07/25 11:56:13;;;;;;;3.33;3.13;;;33.10;58.50;;;;;;5065822;28;20445;-88
2022/07/25 11:58:42;;;;;;;3.90;3.63;;;33.10;56.20;;;;;;5057240;28;20484;-91
2022/07/25 12:01:14;;;;;;;3.70;3.40;;;33.00;56.80;;;;;;5064881;28;20451;-88
2022/07/25 12:03:42;;;;;;;4.40;4.10;;;33.10;56.30;;;;;;5059109;28;20514;-87
2022/07/25 12:06:10;;;;;;;3.80;3.50;;;33.20;57.40;;;;;;5063190;28;20543;-87
2022/07/25 12:08:40;;;;;;;3.93;3.63;;;33.30;58.90;;;;;;5064368;28;20487;-87
2022/07/25 12:11:17;;;;;;;4.47;3.80;;;33.40;57.90;;;;;;5062995;28;20474;-87
2022/07/25 12:13:46;;;;;;;4.67;4.27;;;33.80;56.20;;;;;;5061301;28;20472;-88
2022/07/25 12:16:13;;;;;;;4.00;3.80;;;33.80;54.40;;;;;;5056607;28;20483;-89
2022/07/25 12:18:41;;;;;;;3.17;2.97;;;33.50;54.00;;;;;;5063571;28;20865;-86
2022/07/25 12:21:08;;;;;;;2.90;2.70;;;33.50;56.70;;;;;;5070403;28;20738;-87
2022/07/25 12:23:35;;;;;;;3.00;2.80;;;33.60;54.50;;;;;;5082950;28;20475;-87
2022/07/25 12:26:02;;;;;;;4.50;4.03;;;33.40;54.40;;;;;;5084819;28;20461;-89
2022/07/25 12:28:29;;;;;;;4.20;3.90;;;33.20;57.40;;;;;;5067589;28;20865;-88
2022/07/25 12:30:57;;;;;;;3.90;3.47;;;33.30;54.10;;;;;;5063062;28;20467;-86
2022/07/25 12:33:24;;;;;;;3.97;3.73;;;33.50;55.50;;;;;;5060940;28;20926;-86
2022/07/25 12:35:51;;;;;;;2.97;2.77;;;33.50;56.80;;;;;;5059147;28;20464;-89
2022/07/25 12:38:18;;;;;;;4.47;4.17;;;33.60;52.70;;;;;;5057681;28;20848;-87
2022/07/25 12:40:45;;;;;;;3.70;3.47;;;33.60;54.10;;;;;;5058856;28;20511;-87
2022/07/25 12:43:12;;;;;;;5.07;3.77;;;33.30;53.70;;;;;;5054471;28;20464;-87
2022/07/25 12:45:41;;;;;;;4.03;3.77;;;33.10;54.90;;;;;;5057627;28;21023;-88
2022/07/25 12:48:09;;;;;;;3.53;3.30;;;33.00;54.30;;;;;;5060333;28;20452;-87
2022/07/25 12:50:36;;;;;;;2.50;2.40;;;33.20;54.90;;;;;;5063032;28;21143;-87
2022/07/25 12:53:04;;;;;;;3.63;3.33;;;33.50;52.70;;;;;;5063206;28;20517;-87